sensor_id;sensor_type;location;lat;lon;timestamp;pressure;altitude;pressure_sealevel;temperature;humidity
41706;BME280;27385;51.096;17.190;2023-02-14T00:00:48;102285.88;;;4.59;87.51
41706;BME280;27385;51.096;17.190;2023-02-14T00:03:28;102287.30;;;4.59;87.39
41706;BME280;27385;51.096;17.190;2023-02-14T00:06:06;102284.14;;;4.59;87.36
41706;BME280;27385;51.096;17.190;2023-02-14T00:08:37;102281.60;;;4.58;87.40
41706;BME280;27385;51.096;17.190;2023-02-14T00:11:09;102283.65;;;4.57;87.33
41706;BME280;27385;51.096;17.190;2023-02-14T00:13:41;102281.36;;;4.57;87.37
41706;BME280;27385;51.096;17.190;2023-02-14T00:16:33;102284.67;;;4.57;87.38
41706;BME280;27385;51.096;17.190;2023-02-14T00:19:04;102285.08;;;4.55;87.46
41706;BME280;27385;51.096;17.190;2023-02-14T00:21:36;102285.87;;;4.55;87.35
41706;BME280;27385;51.096;17.190;2023-02-14T00:24:10;102288.55;;;4.54;87.30
41706;BME280;27385;51.096;17.190;2023-02-14T00:26:42;102286.50;;;4.53;87.23
41706;BME280;27385;51.096;17.190;2023-02-14T00:29:15;102287.02;;;4.51;87.20
41706;BME280;27385;51.096;17.190;2023-02-14T00:31:47;102288.21;;;4.50;87.18
41706;BME280;27385;51.096;17.190;2023-02-14T00:34:18;102292.25;;;4.50;87.34
41706;BME280;27385;51.096;17.190;2023-02-14T00:36:49;102289.16;;;4.49;87.21
41706;BME280;27385;51.096;17.190;2023-02-14T00:39:20;102290.02;;;4.48;87.49
41706;BME280;27385;51.096;17.190;2023-02-14T00:41:52;102285.45;;;4.49;87.41
41706;BME280;27385;51.096;17.190;2023-02-14T00:44:23;102289.95;;;4.49;87.33
41706;BME280;27385;51.096;17.190;2023-02-14T00:46:54;102290.35;;;4.49;87.45
41706;BME280;27385;51.096;17.190;2023-02-14T00:49:25;102295.80;;;4.48;87.40
41706;BME280;27385;51.096;17.190;2023-02-14T00:51:56;102295.39;;;4.48;87.29
41706;BME280;27385;51.096;17.190;2023-02-14T00:54:28;102299.20;;;4.48;87.22
41706;BME280;27385;51.096;17.190;2023-02-14T00:56:59;102294.21;;;4.49;87.24
41706;BME280;27385;51.096;17.190;2023-02-14T00:59:30;102293.20;;;4.49;87.26
41706;BME280;27385;51.096;17.190;2023-02-14T01:02:01;102294.77;;;4.49;87.18
41706;BME280;27385;51.096;17.190;2023-02-14T01:04:31;102294.37;;;4.47;87.09
41706;BME280;27385;51.096;17.190;2023-02-14T01:07:02;102287.88;;;4.46;87.01
41706;BME280;27385;51.096;17.190;2023-02-14T01:09:34;102288.04;;;4.46;87.12
41706;BME280;27385;51.096;17.190;2023-02-14T01:12:06;102288.50;;;4.46;87.24
41706;BME280;27385;51.096;17.190;2023-02-14T01:14:37;102287.23;;;4.45;87.17
41706;BME280;27385;51.096;17.190;2023-02-14T01:17:08;102290.63;;;4.45;87.11
41706;BME280;27385;51.096;17.190;2023-02-14T01:19:39;102289.54;;;4.46;87.23
41706;BME280;27385;51.096;17.190;2023-02-14T01:22:11;102287.33;;;4.45;87.08
41706;BME280;27385;51.096;17.190;2023-02-14T01:24:42;102287.95;;;4.45;87.10
41706;BME280;27385;51.096;17.190;2023-02-14T01:27:13;102290.02;;;4.45;87.14
41706;BME280;27385;51.096;17.190;2023-02-14T01:29:44;102291.11;;;4.45;87.09
41706;BME280;27385;51.096;17.190;2023-02-14T01:32:15;102289.83;;;4.43;87.07
41706;BME280;27385;51.096;17.190;2023-02-14T01:34:46;102292.75;;;4.41;87.17
41706;BME280;27385;51.096;17.190;2023-02-14T01:37:17;102291.07;;;4.39;87.23
41706;BME280;27385;51.096;17.190;2023-02-14T01:39:48;102285.39;;;4.38;87.37
41706;BME280;27385;51.096;17.190;2023-02-14T01:42:19;102285.55;;;4.38;87.30
41706;BME280;27385;51.096;17.190;2023-02-14T01:44:59;102282.63;;;4.38;87.14
41706;BME280;27385;51.096;17.190;2023-02-14T01:47:33;102280.56;;;4.36;87.10
41706;BME280;27385;51.096;17.190;2023-02-14T01:50:09;102281.80;;;4.34;87.36
41706;BME280;27385;51.096;17.190;2023-02-14T01:52:44;102281.73;;;4.33;87.47
41706;BME280;27385;51.096;17.190;2023-02-14T01:55:20;102282.67;;;4.31;87.45
41706;BME280;27385;51.096;17.190;2023-02-14T01:57:54;102279.11;;;4.29;87.53
41706;BME280;27385;51.096;17.190;2023-02-14T02:00:28;102280.68;;;4.28;87.53
41706;BME280;27385;51.096;17.190;2023-02-14T02:03:18;102277.66;;;4.27;87.46
41706;BME280;27385;51.096;17.190;2023-02-14T02:05:52;102275.21;;;4.27;87.55
41706;BME280;27385;51.096;17.190;2023-02-14T02:08:25;102276.02;;;4.28;87.53
41706;BME280;27385;51.096;17.190;2023-02-14T02:10:56;102271.28;;;4.28;87.45
41706;BME280;27385;51.096;17.190;2023-02-14T02:13:27;102268.98;;;4.29;87.49
41706;BME280;27385;51.096;17.190;2023-02-14T02:16:09;102268.38;;;4.31;87.60
41706;BME280;27385;51.096;17.190;2023-02-14T02:18:50;102256.45;;;4.32;87.34
41706;BME280;27385;51.096;17.190;2023-02-14T02:24:32;102255.02;;;4.33;87.46
41706;BME280;27385;51.096;17.190;2023-02-14T02:27:44;102252.88;;;4.33;87.47
41706;BME280;27385;51.096;17.190;2023-02-14T02:30:37;102253.69;;;4.33;87.42
41706;BME280;27385;51.096;17.190;2023-02-14T02:33:42;102255.90;;;4.32;87.37
41706;BME280;27385;51.096;17.190;2023-02-14T02:39:31;102251.36;;;4.29;87.31
41706;BME280;27385;51.096;17.190;2023-02-14T02:42:09;102252.95;;;4.28;87.12
41706;BME280;27385;51.096;17.190;2023-02-14T02:44:50;102246.48;;;4.28;87.16
41706;BME280;27385;51.096;17.190;2023-02-14T02:47:29;102245.67;;;4.27;87.00
41706;BME280;27385;51.096;17.190;2023-02-14T02:50:10;102242.50;;;4.25;86.89
41706;BME280;27385;51.096;17.190;2023-02-14T02:53:06;102241.08;;;4.25;86.99
41706;BME280;27385;51.096;17.190;2023-02-14T02:55:43;102243.14;;;4.25;86.92
41706;BME280;27385;51.096;17.190;2023-02-14T02:58:34;102243.77;;;4.24;86.90
41706;BME280;27385;51.096;17.190;2023-02-14T03:01:10;102244.31;;;4.25;86.87
41706;BME280;27385;51.096;17.190;2023-02-14T03:03:46;102242.03;;;4.25;86.84
41706;BME280;27385;51.096;17.190;2023-02-14T03:06:36;102241.71;;;4.26;86.73
41706;BME280;27385;51.096;17.190;2023-02-14T03:09:47;102238.48;;;4.26;86.67
41706;BME280;27385;51.096;17.190;2023-02-14T03:12:12;102234.30;;;4.26;86.72
41706;BME280;27385;51.096;17.190;2023-02-14T03:14:50;102234.38;;;4.25;86.70
41706;BME280;27385;51.096;17.190;2023-02-14T03:17:33;102231.67;;;4.25;86.47
41706;BME280;27385;51.096;17.190;2023-02-14T03:20:11;102229.48;;;4.26;86.40
41706;BME280;27385;51.096;17.190;2023-02-14T03:22:50;102223.86;;;4.25;86.40
41706;BME280;27385;51.096;17.190;2023-02-14T03:25:33;102225.54;;;4.26;86.39
41706;BME280;27385;51.096;17.190;2023-02-14T03:28:13;102227.90;;;4.27;86.30
41706;BME280;27385;51.096;17.190;2023-02-14T03:30:55;102225.93;;;4.26;86.20
41706;BME280;27385;51.096;17.190;2023-02-14T03:33:32;102220.09;;;4.26;86.13
41706;BME280;27385;51.096;17.190;2023-02-14T03:36:13;102224.11;;;4.27;85.94
41706;BME280;27385;51.096;17.190;2023-02-14T03:38:50;102223.80;;;4.27;86.05
41706;BME280;27385;51.096;17.190;2023-02-14T03:41:27;102225.86;;;4.28;85.95
41706;BME280;27385;51.096;17.190;2023-02-14T03:44:01;102229.09;;;4.28;85.93
41706;BME280;27385;51.096;17.190;2023-02-14T03:46:36;102235.10;;;4.28;85.87
41706;BME280;27385;51.096;17.190;2023-02-14T03:49:10;102232.02;;;4.28;85.79
41706;BME280;27385;51.096;17.190;2023-02-14T03:51:45;102233.75;;;4.29;85.79
41706;BME280;27385;51.096;17.190;2023-02-14T03:54:18;102240.39;;;4.29;85.56
41706;BME280;27385;51.096;17.190;2023-02-14T03:56:54;102241.66;;;4.28;85.65
41706;BME280;27385;51.096;17.190;2023-02-14T03:59:28;102245.68;;;4.28;85.49
41706;BME280;27385;51.096;17.190;2023-02-14T04:02:03;102248.77;;;4.28;85.54
41706;BME280;27385;51.096;17.190;2023-02-14T04:04:39;102251.36;;;4.28;85.39
41706;BME280;27385;51.096;17.190;2023-02-14T04:07:14;102252.40;;;4.28;85.38
41706;BME280;27385;51.096;17.190;2023-02-14T04:09:46;102257.61;;;4.28;85.42
41706;BME280;27385;51.096;17.190;2023-02-14T04:12:18;102253.19;;;4.28;85.22
41706;BME280;27385;51.096;17.190;2023-02-14T04:14:49;102250.19;;;4.28;85.10
41706;BME280;27385;51.096;17.190;2023-02-14T04:17:19;102247.02;;;4.28;85.17
41706;BME280;27385;51.096;17.190;2023-02-14T04:20:10;102248.45;;;4.28;85.13
41706;BME280;27385;51.096;17.190;2023-02-14T04:22:41;102253.17;;;4.27;85.12
41706;BME280;27385;51.096;17.190;2023-02-14T04:25:12;102251.44;;;4.26;85.06
41706;BME280;27385;51.096;17.190;2023-02-14T04:27:43;102249.86;;;4.26;85.11
41706;BME280;27385;51.096;17.190;2023-02-14T04:30:15;102252.55;;;4.27;85.15
41706;BME280;27385;51.096;17.190;2023-02-14T04:32:49;102248.91;;;4.27;85.01
41706;BME280;27385;51.096;17.190;2023-02-14T04:35:20;102250.02;;;4.27;84.85
41706;BME280;27385;51.096;17.190;2023-02-14T04:37:51;102251.99;;;4.27;84.95
41706;BME280;27385;51.096;17.190;2023-02-14T04:40:22;102253.65;;;4.27;84.84
41706;BME280;27385;51.096;17.190;2023-02-14T04:42:53;102254.13;;;4.27;84.99
41706;BME280;27385;51.096;17.190;2023-02-14T04:45:24;102249.22;;;4.27;84.97
41706;BME280;27385;51.096;17.190;2023-02-14T04:47:55;102250.73;;;4.27;84.89
41706;BME280;27385;51.096;17.190;2023-02-14T04:50:26;102252.15;;;4.26;84.71
41706;BME280;27385;51.096;17.190;2023-02-14T04:52:56;102252.46;;;4.27;84.71
41706;BME280;27385;51.096;17.190;2023-02-14T04:55:27;102252.23;;;4.26;84.73
41706;BME280;27385;51.096;17.190;2023-02-14T04:57:58;102252.39;;;4.26;84.80
41706;BME280;27385;51.096;17.190;2023-02-14T05:00:29;102250.41;;;4.25;84.84
41706;BME280;27385;51.096;17.190;2023-02-14T05:03:00;102254.74;;;4.25;84.79
41706;BME280;27385;51.096;17.190;2023-02-14T05:05:31;102255.14;;;4.24;84.81
41706;BME280;27385;51.096;17.190;2023-02-14T05:08:02;102249.06;;;4.24;84.80
41706;BME280;27385;51.096;17.190;2023-02-14T05:10:33;102241.87;;;4.24;84.72
41706;BME280;27385;51.096;17.190;2023-02-14T05:13:04;102239.66;;;4.23;84.54
41706;BME280;27385;51.096;17.190;2023-02-14T05:15:35;102235.70;;;4.22;84.53
41706;BME280;27385;51.096;17.190;2023-02-14T05:18:06;102240.44;;;4.22;84.42
41706;BME280;27385;51.096;17.190;2023-02-14T05:20:37;102245.40;;;4.21;84.43
41706;BME280;27385;51.096;17.190;2023-02-14T05:23:08;102247.38;;;4.21;84.42
41706;BME280;27385;51.096;17.190;2023-02-14T05:25:42;102247.45;;;4.21;84.39
41706;BME280;27385;51.096;17.190;2023-02-14T05:28:13;102245.64;;;4.21;84.36
41706;BME280;27385;51.096;17.190;2023-02-14T05:30:44;102246.52;;;4.21;84.47
41706;BME280;27385;51.096;17.190;2023-02-14T05:33:15;102244.54;;;4.21;84.34
41706;BME280;27385;51.096;17.190;2023-02-14T05:35:46;102249.11;;;4.21;84.36
41706;BME280;27385;51.096;17.190;2023-02-14T05:38:17;102248.48;;;4.21;84.19
41706;BME280;27385;51.096;17.190;2023-02-14T05:40:48;102243.11;;;4.21;84.15
41706;BME280;27385;51.096;17.190;2023-02-14T05:43:19;102249.75;;;4.21;84.11
41706;BME280;27385;51.096;17.190;2023-02-14T05:45:51;102254.41;;;4.20;84.30
41706;BME280;27385;51.096;17.190;2023-02-14T05:48:22;102256.37;;;4.21;84.22
41706;BME280;27385;51.096;17.190;2023-02-14T05:50:53;102257.56;;;4.20;84.18
41706;BME280;27385;51.096;17.190;2023-02-14T05:53:24;102259.23;;;4.20;84.18
41706;BME280;27385;51.096;17.190;2023-02-14T05:55:55;102258.91;;;4.19;84.06
41706;BME280;27385;51.096;17.190;2023-02-14T05:58:26;102268.70;;;4.19;84.13
41706;BME280;27385;51.096;17.190;2023-02-14T06:00:58;102272.88;;;4.19;84.09
41706;BME280;27385;51.096;17.190;2023-02-14T06:03:29;102278.89;;;4.20;84.20
41706;BME280;27385;51.096;17.190;2023-02-14T06:06:00;102275.58;;;4.21;84.09
41706;BME280;27385;51.096;17.190;2023-02-14T06:08:31;102281.97;;;4.21;83.98
41706;BME280;27385;51.096;17.190;2023-02-14T06:11:02;102281.98;;;4.20;83.84
41706;BME280;27385;51.096;17.190;2023-02-14T06:13:33;102281.58;;;4.20;83.77
41706;BME280;27385;51.096;17.190;2023-02-14T06:16:05;102282.92;;;4.20;83.86
41706;BME280;27385;51.096;17.190;2023-02-14T06:18:36;102281.97;;;4.19;83.87
41706;BME280;27385;51.096;17.190;2023-02-14T06:21:07;102287.18;;;4.20;83.90
41706;BME280;27385;51.096;17.190;2023-02-14T06:23:38;102288.14;;;4.21;83.94
41706;BME280;27385;51.096;17.190;2023-02-14T06:26:09;102289.96;;;4.21;83.83
41706;BME280;27385;51.096;17.190;2023-02-14T06:28:40;102291.54;;;4.21;83.78
41706;BME280;27385;51.096;17.190;2023-02-14T06:31:16;102295.48;;;4.21;83.84
41706;BME280;27385;51.096;17.190;2023-02-14T06:33:47;102296.44;;;4.22;83.82
41706;BME280;27385;51.096;17.190;2023-02-14T06:36:19;102298.01;;;4.21;83.73
41706;BME280;27385;51.096;17.190;2023-02-14T06:38:51;102302.60;;;4.22;83.93
41706;BME280;27385;51.096;17.190;2023-02-14T06:41:22;102302.83;;;4.22;83.71
41706;BME280;27385;51.096;17.190;2023-02-14T06:43:53;102303.70;;;4.22;83.72
41706;BME280;27385;51.096;17.190;2023-02-14T06:46:24;102302.44;;;4.21;83.71
41706;BME280;27385;51.096;17.190;2023-02-14T06:48:55;102303.94;;;4.21;83.74
41706;BME280;27385;51.096;17.190;2023-02-14T06:51:27;102298.17;;;4.22;83.69
41706;BME280;27385;51.096;17.190;2023-02-14T06:53:57;102300.39;;;4.22;83.64
41706;BME280;27385;51.096;17.190;2023-02-14T06:56:28;102299.76;;;4.21;83.59
41706;BME280;27385;51.096;17.190;2023-02-14T06:58:59;102299.75;;;4.21;83.68
41706;BME280;27385;51.096;17.190;2023-02-14T07:01:30;102301.64;;;4.21;83.76
41706;BME280;27385;51.096;17.190;2023-02-14T07:04:01;102306.45;;;4.22;83.68
41706;BME280;27385;51.096;17.190;2023-02-14T07:06:32;102310.80;;;4.23;83.69
41706;BME280;27385;51.096;17.190;2023-02-14T07:09:03;102310.90;;;4.23;83.72
41706;BME280;27385;51.096;17.190;2023-02-14T07:11:34;102306.86;;;4.23;83.61
41706;BME280;27385;51.096;17.190;2023-02-14T07:14:06;102307.77;;;4.24;83.62
41706;BME280;27385;51.096;17.190;2023-02-14T07:16:37;102309.40;;;4.23;83.61
41706;BME280;27385;51.096;17.190;2023-02-14T07:19:08;102313.11;;;4.25;83.78
41706;BME280;27385;51.096;17.190;2023-02-14T07:21:39;102309.33;;;4.25;83.59
41706;BME280;27385;51.096;17.190;2023-02-14T07:24:10;102309.50;;;4.26;83.63
41706;BME280;27385;51.096;17.190;2023-02-14T07:26:41;102309.83;;;4.26;83.63
41706;BME280;27385;51.096;17.190;2023-02-14T07:29:12;102309.98;;;4.27;83.62
41706;BME280;27385;51.096;17.190;2023-02-14T07:31:43;102308.96;;;4.28;83.64
41706;BME280;27385;51.096;17.190;2023-02-14T07:34:13;102311.58;;;4.31;83.61
41706;BME280;27385;51.096;17.190;2023-02-14T07:36:45;102317.75;;;4.31;83.54
41706;BME280;27385;51.096;17.190;2023-02-14T07:39:15;102323.61;;;4.33;83.58
41706;BME280;27385;51.096;17.190;2023-02-14T07:41:46;102320.44;;;4.35;83.61
41706;BME280;27385;51.096;17.190;2023-02-14T07:44:18;102312.48;;;4.36;83.54
41706;BME280;27385;51.096;17.190;2023-02-14T07:46:49;102311.61;;;4.39;83.43
41706;BME280;27385;51.096;17.190;2023-02-14T07:49:20;102317.48;;;4.41;83.26
41706;BME280;27385;51.096;17.190;2023-02-14T07:51:51;102314.02;;;4.42;83.28
41706;BME280;27385;51.096;17.190;2023-02-14T07:54:22;102314.17;;;4.43;83.31
41706;BME280;27385;51.096;17.190;2023-02-14T07:56:53;102311.03;;;4.45;83.04
41706;BME280;27385;51.096;17.190;2023-02-14T07:59:24;102310.95;;;4.46;83.16
41706;BME280;27385;51.096;17.190;2023-02-14T08:01:55;102317.99;;;4.48;83.16
41706;BME280;27385;51.096;17.190;2023-02-14T08:04:26;102320.77;;;4.50;83.14
41706;BME280;27385;51.096;17.190;2023-02-14T08:06:57;102316.45;;;4.52;83.20
41706;BME280;27385;51.096;17.190;2023-02-14T08:09:28;102314.55;;;4.54;82.99
41706;BME280;27385;51.096;17.190;2023-02-14T08:12:00;102321.98;;;4.56;82.83
41706;BME280;27385;51.096;17.190;2023-02-14T08:14:48;102324.45;;;4.58;82.85
41706;BME280;27385;51.096;17.190;2023-02-14T08:17:20;102328.41;;;4.60;82.79
41706;BME280;27385;51.096;17.190;2023-02-14T08:19:51;102335.53;;;4.60;82.73
41706;BME280;27385;51.096;17.190;2023-02-14T08:22:22;102335.84;;;4.61;82.49
41706;BME280;27385;51.096;17.190;2023-02-14T08:24:53;102328.66;;;4.62;82.61
41706;BME280;27385;51.096;17.190;2023-02-14T08:27:23;102334.59;;;4.64;82.56
41706;BME280;27385;51.096;17.190;2023-02-14T08:29:55;102335.95;;;4.67;82.73
41706;BME280;27385;51.096;17.190;2023-02-14T08:32:26;102339.20;;;4.70;82.67
41706;BME280;27385;51.096;17.190;2023-02-14T08:34:56;102337.48;;;4.72;82.70
41706;BME280;27385;51.096;17.190;2023-02-14T08:37:27;102330.69;;;4.76;82.68
41706;BME280;27385;51.096;17.190;2023-02-14T08:39:58;102332.77;;;4.78;82.78
41706;BME280;27385;51.096;17.190;2023-02-14T08:42:29;102333.81;;;4.82;82.55
41706;BME280;27385;51.096;17.190;2023-02-14T08:45:00;102332.94;;;4.83;82.43
41706;BME280;27385;51.096;17.190;2023-02-14T08:47:31;102334.77;;;4.86;82.33
41706;BME280;27385;51.096;17.190;2023-02-14T08:50:06;102338.48;;;4.88;82.41
41706;BME280;27385;51.096;17.190;2023-02-14T08:52:39;102335.58;;;4.90;82.47
41706;BME280;27385;51.096;17.190;2023-02-14T08:55:13;102335.83;;;4.94;82.30
41706;BME280;27385;51.096;17.190;2023-02-14T08:57:44;102336.31;;;4.97;82.39
41706;BME280;27385;51.096;17.190;2023-02-14T09:00:16;102339.09;;;4.99;82.35
41706;BME280;27385;51.096;17.190;2023-02-14T09:02:50;102345.50;;;5.00;81.76
41706;BME280;27385;51.096;17.190;2023-02-14T09:05:22;102344.94;;;5.00;82.11
41706;BME280;27385;51.096;17.190;2023-02-14T09:07:53;102341.16;;;5.03;82.12
41706;BME280;27385;51.096;17.190;2023-02-14T09:10:25;102345.90;;;5.06;81.99
41706;BME280;27385;51.096;17.190;2023-02-14T09:12:56;102351.06;;;5.07;81.89
41706;BME280;27385;51.096;17.190;2023-02-14T09:15:27;102347.10;;;5.09;82.02
41706;BME280;27385;51.096;17.190;2023-02-14T09:17:59;102347.91;;;5.12;81.92
41706;BME280;27385;51.096;17.190;2023-02-14T09:20:30;102347.84;;;5.14;81.91
41706;BME280;27385;51.096;17.190;2023-02-14T09:23:01;102347.93;;;5.16;81.71
41706;BME280;27385;51.096;17.190;2023-02-14T09:25:32;102349.91;;;5.18;81.40
41706;BME280;27385;51.096;17.190;2023-02-14T09:28:04;102355.44;;;5.19;81.44
41706;BME280;27385;51.096;17.190;2023-02-14T09:30:35;102355.21;;;5.21;81.39
41706;BME280;27385;51.096;17.190;2023-02-14T09:33:06;102351.03;;;5.24;81.48
41706;BME280;27385;51.096;17.190;2023-02-14T09:35:37;102355.95;;;5.27;81.19
41706;BME280;27385;51.096;17.190;2023-02-14T09:38:10;102353.08;;;5.26;81.10
41706;BME280;27385;51.096;17.190;2023-02-14T09:40:47;102358.08;;;5.28;81.14
41706;BME280;27385;51.096;17.190;2023-02-14T09:43:24;102360.23;;;5.30;80.86
41706;BME280;27385;51.096;17.190;2023-02-14T09:46:00;102365.14;;;5.32;81.04
41706;BME280;27385;51.096;17.190;2023-02-14T09:48:34;102365.23;;;5.35;80.96
41706;BME280;27385;51.096;17.190;2023-02-14T09:51:10;102361.42;;;5.37;80.84
41706;BME280;27385;51.096;17.190;2023-02-14T09:53:46;102358.04;;;5.38;80.55
41706;BME280;27385;51.096;17.190;2023-02-14T09:56:26;102353.29;;;5.39;80.99
41706;BME280;27385;51.096;17.190;2023-02-14T09:59:06;102356.76;;;5.43;81.00
41706;BME280;27385;51.096;17.190;2023-02-14T10:01:42;102358.52;;;5.46;80.69
41706;BME280;27385;51.096;17.190;2023-02-14T10:04:21;102357.02;;;5.49;80.41
41706;BME280;27385;51.096;17.190;2023-02-14T10:06:57;102357.41;;;5.48;80.28
41706;BME280;27385;51.096;17.190;2023-02-14T10:09:42;102362.01;;;5.50;80.47
41706;BME280;27385;51.096;17.190;2023-02-14T10:12:22;102359.00;;;5.53;80.11
41706;BME280;27385;51.096;17.190;2023-02-14T10:14:55;102351.09;;;5.54;79.93
41706;BME280;27385;51.096;17.190;2023-02-14T10:17:33;102354.98;;;5.55;80.00
41706;BME280;27385;51.096;17.190;2023-02-14T10:20:17;102361.86;;;5.57;79.92
41706;BME280;27385;51.096;17.190;2023-02-14T10:22:56;102349.12;;;5.58;79.88
41706;BME280;27385;51.096;17.190;2023-02-14T10:25:34;102347.30;;;5.60;79.47
41706;BME280;27385;51.096;17.190;2023-02-14T10:28:12;102352.60;;;5.60;79.46
41706;BME280;27385;51.096;17.190;2023-02-14T10:30:50;102354.83;;;5.60;79.48
41706;BME280;27385;51.096;17.190;2023-02-14T10:33:26;102348.09;;;5.63;80.08
41706;BME280;27385;51.096;17.190;2023-02-14T10:36:02;102343.90;;;5.66;79.73
41706;BME280;27385;51.096;17.190;2023-02-14T10:38:41;102341.21;;;5.67;79.40
41706;BME280;27385;51.096;17.190;2023-02-14T10:41:32;102342.31;;;5.67;79.38
41706;BME280;27385;51.096;17.190;2023-02-14T10:44:21;102335.19;;;5.68;79.28
41706;BME280;27385;51.096;17.190;2023-02-14T10:47:00;102334.63;;;5.70;79.30
41706;BME280;27385;51.096;17.190;2023-02-14T10:49:42;102337.41;;;5.73;79.34
41706;BME280;27385;51.096;17.190;2023-02-14T10:52:21;102336.15;;;5.76;79.29
41706;BME280;27385;51.096;17.190;2023-02-14T10:54:57;102336.77;;;5.78;78.80
41706;BME280;27385;51.096;17.190;2023-02-14T10:57:33;102330.83;;;5.79;78.91
41706;BME280;27385;51.096;17.190;2023-02-14T11:00:10;102330.61;;;5.79;78.64
41706;BME280;27385;51.096;17.190;2023-02-14T11:02:49;102333.85;;;5.81;78.84
41706;BME280;27385;51.096;17.190;2023-02-14T11:05:27;102333.23;;;5.83;78.89
41706;BME280;27385;51.096;17.190;2023-02-14T11:08:00;102326.35;;;5.86;78.56
41706;BME280;27385;51.096;17.190;2023-02-14T11:10:34;102328.57;;;5.88;78.42
41706;BME280;27385;51.096;17.190;2023-02-14T11:13:32;102330.39;;;5.88;78.32
41706;BME280;27385;51.096;17.190;2023-02-14T11:16:06;102323.58;;;5.91;78.24
41706;BME280;27385;51.096;17.190;2023-02-14T11:18:38;102322.39;;;5.92;78.07
41706;BME280;27385;51.096;17.190;2023-02-14T11:21:12;102324.23;;;5.92;77.81
41706;BME280;27385;51.096;17.190;2023-02-14T11:23:47;102324.85;;;5.91;77.66
41706;BME280;27385;51.096;17.190;2023-02-14T11:26:24;102325.73;;;5.92;77.62
41706;BME280;27385;51.096;17.190;2023-02-14T11:28:59;102318.27;;;5.93;77.73
41706;BME280;27385;51.096;17.190;2023-02-14T11:31:33;102315.42;;;5.97;77.60
41706;BME280;27385;51.096;17.190;2023-02-14T11:34:22;102312.73;;;5.99;77.51
41706;BME280;27385;51.096;17.190;2023-02-14T11:36:55;102314.15;;;6.01;77.48
41706;BME280;27385;51.096;17.190;2023-02-14T11:39:30;102310.35;;;6.00;77.14
41706;BME280;27385;51.096;17.190;2023-02-14T11:42:03;102305.13;;;6.00;77.17
41706;BME280;27385;51.096;17.190;2023-02-14T11:44:35;102307.80;;;6.02;76.93
41706;BME280;27385;51.096;17.190;2023-02-14T11:47:24;102304.95;;;6.02;76.68
41706;BME280;27385;51.096;17.190;2023-02-14T11:49:57;102298.77;;;6.04;76.79
41706;BME280;27385;51.096;17.190;2023-02-14T11:52:30;102294.11;;;6.06;76.85
41706;BME280;27385;51.096;17.190;2023-02-14T11:55:01;102292.27;;;6.06;76.45
41706;BME280;27385;51.096;17.190;2023-02-14T11:57:36;102294.02;;;6.04;76.28
41706;BME280;27385;51.096;17.190;2023-02-14T12:00:16;102291.16;;;6.04;76.66
41706;BME280;27385;51.096;17.190;2023-02-14T12:02:49;102292.73;;;6.04;76.58
41706;BME280;27385;51.096;17.190;2023-02-14T12:05:25;102292.28;;;6.03;75.78
41706;BME280;27385;51.096;17.190;2023-02-14T12:07:59;102295.53;;;5.98;75.77
41706;BME280;27385;51.096;17.190;2023-02-14T12:10:31;102294.74;;;5.97;75.32
41706;BME280;27385;51.096;17.190;2023-02-14T12:13:22;102291.19;;;5.96;75.56
41706;BME280;27385;51.096;17.190;2023-02-14T12:15:53;102285.64;;;5.94;75.32
41706;BME280;27385;51.096;17.190;2023-02-14T12:18:41;102284.62;;;5.91;75.48
41706;BME280;27385;51.096;17.190;2023-02-14T12:21:43;102283.89;;;5.92;75.70
41706;BME280;27385;51.096;17.190;2023-02-14T12:24:29;102285.24;;;5.93;75.21
41706;BME280;27385;51.096;17.190;2023-02-14T12:27:09;102281.92;;;5.93;75.17
41706;BME280;27385;51.096;17.190;2023-02-14T12:29:50;102276.21;;;5.92;75.18
41706;BME280;27385;51.096;17.190;2023-02-14T12:32:24;102274.79;;;5.93;75.16
41706;BME280;27385;51.096;17.190;2023-02-14T12:34:59;102278.67;;;5.91;75.06
41706;BME280;27385;51.096;17.190;2023-02-14T12:37:40;102274.17;;;5.89;74.59
41706;BME280;27385;51.096;17.190;2023-02-14T12:40:24;102274.00;;;5.85;74.40
41706;BME280;27385;51.096;17.190;2023-02-14T12:43:07;102267.58;;;5.83;74.78
41706;BME280;27385;51.096;17.190;2023-02-14T12:45:57;102268.22;;;5.84;74.87
41706;BME280;27385;51.096;17.190;2023-02-14T12:48:37;102271.31;;;5.85;74.52
41706;BME280;27385;51.096;17.190;2023-02-14T12:51:15;102265.52;;;5.84;74.69
41706;BME280;27385;51.096;17.190;2023-02-14T12:54:01;102261.08;;;5.83;74.57
41706;BME280;27385;51.096;17.190;2023-02-14T12:56:47;102265.61;;;5.85;74.93
41706;BME280;27385;51.096;17.190;2023-02-14T12:59:27;102264.89;;;5.87;74.99
41706;BME280;27385;51.096;17.190;2023-02-14T13:02:23;102258.80;;;5.88;74.50
41706;BME280;27385;51.096;17.190;2023-02-14T13:05:15;102259.35;;;5.87;74.40
41706;BME280;27385;51.096;17.190;2023-02-14T13:08:05;102255.79;;;5.87;74.42
41706;BME280;27385;51.096;17.190;2023-02-14T13:10:52;102256.34;;;5.88;74.46
41706;BME280;27385;51.096;17.190;2023-02-14T13:13:35;102251.75;;;5.89;74.38
41706;BME280;27385;51.096;17.190;2023-02-14T13:16:17;102250.80;;;5.91;74.43
41706;BME280;27385;51.096;17.190;2023-02-14T13:18:58;102245.09;;;5.93;74.39
41706;BME280;27385;51.096;17.190;2023-02-14T13:21:32;102244.77;;;5.96;74.31
41706;BME280;27385;51.096;17.190;2023-02-14T13:24:14;102246.59;;;6.00;74.27
41706;BME280;27385;51.096;17.190;2023-02-14T13:26:50;102245.54;;;6.03;73.65
41706;BME280;27385;51.096;17.190;2023-02-14T13:29:26;102239.29;;;6.01;73.39
41706;BME280;27385;51.096;17.190;2023-02-14T13:31:59;102243.16;;;6.00;73.69
41706;BME280;27385;51.096;17.190;2023-02-14T13:34:35;102244.75;;;6.03;73.58
41706;BME280;27385;51.096;17.190;2023-02-14T13:37:11;102242.84;;;6.04;73.37